Travis Air Force Base
KSUU : rendu visible

Aérodrome :











RETROUVEZ-NOUS SUR...

 
LOGIN :

S'inscrire | Disclaimer

   EN    FR    IT 

 









Légende :    VFR   VFR Marginal   IFR   IFR Intensif   IFR Très Intensif
Visi : 
Plafond : 
>= 8 km
>= 3000ft
5 à 8 km
1000 à 3000 ft
1500m à 5 km
500 à 1000 ft
800 à 1500m
200 à 500 ft
< 800m
< 200 ft
Symboles :   Orages  Brouillard  Fortes neiges  Fortes précipitations  Vent > 20 kt






- Altitude de l'aérodrome : 62 ft


KSUU - Travis Air Force Base

DERNIER METAR :
  • 180858Z AUTO 00000KT 10SM BKN170 BKN230 04/02 A3035 RMK AO2 SLP285 T00390024 50008 $

METARs EXPIRÉS :
  • 180758Z AUTO 00000KT 10SM CLR 03/02 A3035 RMK AO2 SLP285 T00340018 400910001 $

TAF TAF KSUU
Valide du 18 à 03h jusqu'au 19 à 09h UTC


180300Z 1803/1909 VRB06KT 9999 BKN150 QNH3030INS
BECMG 1807/1808 VRB06KT 3200 BR BKN150 QNH3032INS
TEMPO 1810/1818 0800 FG
BECMG 1817/1818 35009KT 9999 NSW SCT150 QNH3025INS TX10/1823Z TN00/1814Z



MET'MAP, la Météo Aéronautique d'un coup d'oeil ! - Copyright ORBIFLY Décembre 2007 - Disclaimer

ORBIFLY MET'MAP TEAM :

Programmation & Développement : Alexandra Zaïnal
Sur une idée originale de : Baudouin d'Aumeries
Assistance à la programmation : Marc-Olivier Méhu
Soutien technique & logistique : Manuel Goepfert

Contact : metmap@orbifly.com




SOURCES & CREDITS :

   NOAA       Earth
Advisory